sensor_id;sensor_type;location;lat;lon;timestamp;P1;durP1;ratioP1;P2;durP2;ratioP2
70757;SDS011;59316;52.964;7.102;2023-07-28T00:03:32;21.55;;;9.93;;
70757;SDS011;59316;52.964;7.102;2023-07-28T00:08:53;14.90;;;8.82;;
70757;SDS011;59316;52.964;7.102;2023-07-28T00:14:15;15.70;;;8.57;;
70757;SDS011;59316;52.964;7.102;2023-07-28T00:19:36;19.42;;;9.77;;
70757;SDS011;59316;52.964;7.102;2023-07-28T00:24:57;21.73;;;9.82;;
70757;SDS011;59316;52.964;7.102;2023-07-28T00:30:19;19.00;;;9.27;;
70757;SDS011;59316;52.964;7.102;2023-07-28T00:35:40;19.73;;;10.52;;
70757;SDS011;59316;52.964;7.102;2023-07-28T00:41:03;22.55;;;10.57;;
70757;SDS011;59316;52.964;7.102;2023-07-28T00:46:24;27.35;;;11.50;;
70757;SDS011;59316;52.964;7.102;2023-07-28T00:51:46;24.38;;;11.50;;
70757;SDS011;59316;52.964;7.102;2023-07-28T00:57:08;23.95;;;11.05;;
70757;SDS011;59316;52.964;7.102;2023-07-28T01:02:29;25.80;;;11.35;;
70757;SDS011;59316;52.964;7.102;2023-07-28T01:13:29;31.10;;;12.07;;
70757;SDS011;59316;52.964;7.102;2023-07-28T01:18:50;24.67;;;11.57;;
70757;SDS011;59316;52.964;7.102;2023-07-28T01:24:17;23.30;;;10.43;;
70757;SDS011;59316;52.964;7.102;2023-07-28T01:29:55;28.85;;;11.60;;
70757;SDS011;59316;52.964;7.102;2023-07-28T01:35:16;27.00;;;11.10;;
70757;SDS011;59316;52.964;7.102;2023-07-28T01:40:38;27.38;;;12.70;;
70757;SDS011;59316;52.964;7.102;2023-07-28T01:45:59;27.42;;;12.52;;
70757;SDS011;59316;52.964;7.102;2023-07-28T01:51:21;30.02;;;13.32;;
70757;SDS011;59316;52.964;7.102;2023-07-28T01:56:42;33.13;;;13.57;;
70757;SDS011;59316;52.964;7.102;2023-07-28T02:02:04;30.13;;;13.25;;
70757;SDS011;59316;52.964;7.102;2023-07-28T02:07:25;31.73;;;12.82;;
70757;SDS011;59316;52.964;7.102;2023-07-28T02:12:47;29.45;;;12.13;;
70757;SDS011;59316;52.964;7.102;2023-07-28T02:18:09;25.88;;;12.68;;
70757;SDS011;59316;52.964;7.102;2023-07-28T02:23:30;28.08;;;12.48;;
70757;SDS011;59316;52.964;7.102;2023-07-28T02:28:52;27.88;;;11.55;;
70757;SDS011;59316;52.964;7.102;2023-07-28T02:34:13;27.88;;;11.10;;
70757;SDS011;59316;52.964;7.102;2023-07-28T02:39:35;29.50;;;12.25;;
70757;SDS011;59316;52.964;7.102;2023-07-28T02:44:56;33.03;;;13.10;;
70757;SDS011;59316;52.964;7.102;2023-07-28T02:50:18;33.28;;;13.35;;
70757;SDS011;59316;52.964;7.102;2023-07-28T02:55:42;35.47;;;14.55;;
70757;SDS011;59316;52.964;7.102;2023-07-28T03:01:05;35.75;;;13.85;;
70757;SDS011;59316;52.964;7.102;2023-07-28T03:06:30;35.83;;;14.05;;
70757;SDS011;59316;52.964;7.102;2023-07-28T03:11:51;38.70;;;14.73;;
70757;SDS011;59316;52.964;7.102;2023-07-28T03:17:13;38.90;;;14.88;;
70757;SDS011;59316;52.964;7.102;2023-07-28T03:22:34;36.33;;;14.45;;
70757;SDS011;59316;52.964;7.102;2023-07-28T03:27:56;37.13;;;15.77;;
70757;SDS011;59316;52.964;7.102;2023-07-28T03:33:18;34.38;;;14.60;;
70757;SDS011;59316;52.964;7.102;2023-07-28T03:38:39;36.45;;;14.77;;
70757;SDS011;59316;52.964;7.102;2023-07-28T03:44:01;31.85;;;14.40;;
70757;SDS011;59316;52.964;7.102;2023-07-28T03:49:22;42.22;;;16.15;;
70757;SDS011;59316;52.964;7.102;2023-07-28T03:54:44;36.53;;;15.98;;
70757;SDS011;59316;52.964;7.102;2023-07-28T04:00:06;38.92;;;15.45;;
70757;SDS011;59316;52.964;7.102;2023-07-28T04:05:36;38.03;;;16.30;;
70757;SDS011;59316;52.964;7.102;2023-07-28T04:10:57;31.13;;;14.90;;
70757;SDS011;59316;52.964;7.102;2023-07-28T04:16:19;31.13;;;15.07;;
70757;SDS011;59316;52.964;7.102;2023-07-28T04:21:40;35.30;;;15.80;;
70757;SDS011;59316;52.964;7.102;2023-07-28T04:27:02;36.97;;;15.75;;
70757;SDS011;59316;52.964;7.102;2023-07-28T04:32:25;33.35;;;16.08;;
70757;SDS011;59316;52.964;7.102;2023-07-28T04:37:48;38.03;;;16.30;;
70757;SDS011;59316;52.964;7.102;2023-07-28T04:43:18;32.90;;;16.00;;
70757;SDS011;59316;52.964;7.102;2023-07-28T04:48:46;33.22;;;15.05;;
70757;SDS011;59316;52.964;7.102;2023-07-28T04:54:26;37.30;;;16.50;;
70757;SDS011;59316;52.964;7.102;2023-07-28T04:59:47;39.95;;;16.27;;
70757;SDS011;59316;52.964;7.102;2023-07-28T05:05:09;37.40;;;15.05;;
70757;SDS011;59316;52.964;7.102;2023-07-28T05:10:30;32.08;;;14.07;;
70757;SDS011;59316;52.964;7.102;2023-07-28T05:15:52;28.77;;;14.45;;
70757;SDS011;59316;52.964;7.102;2023-07-28T05:21:32;28.98;;;14.30;;
70757;SDS011;59316;52.964;7.102;2023-07-28T05:26:54;29.63;;;14.15;;
70757;SDS011;59316;52.964;7.102;2023-07-28T05:32:16;28.35;;;14.25;;
70757;SDS011;59316;52.964;7.102;2023-07-28T05:38:00;31.13;;;14.25;;
70757;SDS011;59316;52.964;7.102;2023-07-28T05:43:21;29.02;;;14.75;;
70757;SDS011;59316;52.964;7.102;2023-07-28T05:48:45;35.10;;;15.68;;
70757;SDS011;59316;52.964;7.102;2023-07-28T05:54:06;37.80;;;16.05;;
70757;SDS011;59316;52.964;7.102;2023-07-28T05:59:28;30.25;;;14.15;;
70757;SDS011;59316;52.964;7.102;2023-07-28T06:04:49;26.13;;;14.10;;
70757;SDS011;59316;52.964;7.102;2023-07-28T06:10:11;23.88;;;13.80;;
70757;SDS011;59316;52.964;7.102;2023-07-28T06:15:32;23.70;;;14.63;;
70757;SDS011;59316;52.964;7.102;2023-07-28T06:20:54;30.92;;;14.30;;
70757;SDS011;59316;52.964;7.102;2023-07-28T06:26:15;30.25;;;13.43;;
70757;SDS011;59316;52.964;7.102;2023-07-28T06:31:37;28.77;;;13.75;;
70757;SDS011;59316;52.964;7.102;2023-07-28T06:36:58;29.25;;;14.13;;
70757;SDS011;59316;52.964;7.102;2023-07-28T06:42:20;24.95;;;12.98;;
70757;SDS011;59316;52.964;7.102;2023-07-28T06:47:47;23.20;;;12.85;;
70757;SDS011;59316;52.964;7.102;2023-07-28T06:53:08;21.40;;;13.10;;
70757;SDS011;59316;52.964;7.102;2023-07-28T06:58:30;19.27;;;12.68;;
70757;SDS011;59316;52.964;7.102;2023-07-28T07:03:51;20.90;;;11.88;;
70757;SDS011;59316;52.964;7.102;2023-07-28T07:09:14;21.88;;;11.38;;
70757;SDS011;59316;52.964;7.102;2023-07-28T07:14:35;18.00;;;9.68;;
70757;SDS011;59316;52.964;7.102;2023-07-28T07:25:20;13.68;;;8.18;;
70757;SDS011;59316;52.964;7.102;2023-07-28T07:30:41;12.00;;;8.13;;
70757;SDS011;59316;52.964;7.102;2023-07-28T07:36:03;11.18;;;6.30;;
70757;SDS011;59316;52.964;7.102;2023-07-28T07:41:24;10.05;;;6.20;;
70757;SDS011;59316;52.964;7.102;2023-07-28T07:46:46;9.80;;;6.45;;
70757;SDS011;59316;52.964;7.102;2023-07-28T07:52:07;10.02;;;5.72;;
70757;SDS011;59316;52.964;7.102;2023-07-28T07:57:29;10.90;;;5.20;;
70757;SDS011;59316;52.964;7.102;2023-07-28T08:02:51;7.93;;;4.55;;
70757;SDS011;59316;52.964;7.102;2023-07-28T08:08:13;6.63;;;4.22;;
70757;SDS011;59316;52.964;7.102;2023-07-28T08:13:35;8.25;;;3.90;;
70757;SDS011;59316;52.964;7.102;2023-07-28T08:18:56;4.22;;;3.80;;
70757;SDS011;59316;52.964;7.102;2023-07-28T08:24:17;7.35;;;3.58;;
70757;SDS011;59316;52.964;7.102;2023-07-28T08:29:39;5.38;;;3.20;;
70757;SDS011;59316;52.964;7.102;2023-07-28T08:35:00;3.50;;;2.92;;
70757;SDS011;59316;52.964;7.102;2023-07-28T08:40:21;5.63;;;2.75;;
70757;SDS011;59316;52.964;7.102;2023-07-28T08:45:42;6.28;;;3.20;;
70757;SDS011;59316;52.964;7.102;2023-07-28T08:51:03;5.10;;;3.13;;
70757;SDS011;59316;52.964;7.102;2023-07-28T08:56:25;6.00;;;3.25;;
70757;SDS011;59316;52.964;7.102;2023-07-28T09:01:46;6.45;;;3.53;;
70757;SDS011;59316;52.964;7.102;2023-07-28T09:07:10;5.60;;;3.38;;
70757;SDS011;59316;52.964;7.102;2023-07-28T09:12:32;8.18;;;3.22;;
70757;SDS011;59316;52.964;7.102;2023-07-28T09:17:53;4.72;;;3.17;;
70757;SDS011;59316;52.964;7.102;2023-07-28T09:23:15;6.93;;;3.90;;
70757;SDS011;59316;52.964;7.102;2023-07-28T09:28:39;7.45;;;3.67;;
70757;SDS011;59316;52.964;7.102;2023-07-28T09:34:01;5.22;;;4.03;;
70757;SDS011;59316;52.964;7.102;2023-07-28T09:39:22;6.88;;;4.22;;
70757;SDS011;59316;52.964;7.102;2023-07-28T09:44:44;4.57;;;3.75;;
70757;SDS011;59316;52.964;7.102;2023-07-28T09:50:06;4.47;;;2.53;;
70757;SDS011;59316;52.964;7.102;2023-07-28T09:55:29;4.40;;;2.70;;
70757;SDS011;59316;52.964;7.102;2023-07-28T10:00:51;6.50;;;2.78;;
70757;SDS011;59316;52.964;7.102;2023-07-28T10:06:13;3.40;;;3.10;;
70757;SDS011;59316;52.964;7.102;2023-07-28T10:11:35;5.55;;;3.30;;
70757;SDS011;59316;52.964;7.102;2023-07-28T10:16:57;4.85;;;3.20;;
70757;SDS011;59316;52.964;7.102;2023-07-28T10:22:19;4.32;;;2.78;;
70757;SDS011;59316;52.964;7.102;2023-07-28T10:27:45;5.03;;;2.90;;
70757;SDS011;59316;52.964;7.102;2023-07-28T10:33:07;5.10;;;2.92;;
70757;SDS011;59316;52.964;7.102;2023-07-28T10:44:37;3.53;;;2.30;;
70757;SDS011;59316;52.964;7.102;2023-07-28T10:50:02;3.08;;;2.28;;
70757;SDS011;59316;52.964;7.102;2023-07-28T10:55:25;3.53;;;2.80;;
70757;SDS011;59316;52.964;7.102;2023-07-28T11:06:10;2.95;;;2.60;;
70757;SDS011;59316;52.964;7.102;2023-07-28T11:11:31;3.25;;;2.35;;
70757;SDS011;59316;52.964;7.102;2023-07-28T11:16:54;3.10;;;1.85;;
70757;SDS011;59316;52.964;7.102;2023-07-28T11:22:18;2.85;;;2.03;;
70757;SDS011;59316;52.964;7.102;2023-07-28T11:27:40;2.40;;;1.77;;
70757;SDS011;59316;52.964;7.102;2023-07-28T11:33:01;3.88;;;2.10;;
70757;SDS011;59316;52.964;7.102;2023-07-28T11:38:24;3.97;;;2.30;;
70757;SDS011;59316;52.964;7.102;2023-07-28T11:43:46;2.50;;;2.05;;
70757;SDS011;59316;52.964;7.102;2023-07-28T11:49:15;3.67;;;1.90;;
70757;SDS011;59316;52.964;7.102;2023-07-28T11:54:39;3.15;;;1.80;;
70757;SDS011;59316;52.964;7.102;2023-07-28T12:00:00;3.53;;;1.70;;
70757;SDS011;59316;52.964;7.102;2023-07-28T12:05:23;2.10;;;1.50;;
70757;SDS011;59316;52.964;7.102;2023-07-28T12:10:54;1.92;;;1.77;;
70757;SDS011;59316;52.964;7.102;2023-07-28T12:16:31;5.43;;;3.67;;
70757;SDS011;59316;52.964;7.102;2023-07-28T12:22:02;6.47;;;3.65;;
70757;SDS011;59316;52.964;7.102;2023-07-28T12:27:24;5.30;;;3.47;;
70757;SDS011;59316;52.964;7.102;2023-07-28T12:32:52;5.85;;;4.32;;
70757;SDS011;59316;52.964;7.102;2023-07-28T12:38:16;6.43;;;3.88;;
70757;SDS011;59316;52.964;7.102;2023-07-28T12:43:41;7.15;;;4.65;;
70757;SDS011;59316;52.964;7.102;2023-07-28T12:49:05;6.47;;;4.40;;
70757;SDS011;59316;52.964;7.102;2023-07-28T12:54:27;6.05;;;4.38;;
70757;SDS011;59316;52.964;7.102;2023-07-28T12:59:48;5.97;;;5.05;;
70757;SDS011;59316;52.964;7.102;2023-07-28T13:05:13;6.63;;;4.60;;
70757;SDS011;59316;52.964;7.102;2023-07-28T13:10:35;7.67;;;4.50;;
70757;SDS011;59316;52.964;7.102;2023-07-28T13:16:00;6.03;;;3.70;;
70757;SDS011;59316;52.964;7.102;2023-07-28T13:21:21;3.90;;;2.80;;
70757;SDS011;59316;52.964;7.102;2023-07-28T13:26:43;3.63;;;2.73;;
70757;SDS011;59316;52.964;7.102;2023-07-28T13:32:09;4.93;;;2.90;;
70757;SDS011;59316;52.964;7.102;2023-07-28T13:37:37;5.15;;;3.90;;
70757;SDS011;59316;52.964;7.102;2023-07-28T13:42:58;10.52;;;5.25;;
70757;SDS011;59316;52.964;7.102;2023-07-28T13:48:25;7.90;;;5.07;;
70757;SDS011;59316;52.964;7.102;2023-07-28T13:53:47;6.82;;;4.45;;
70757;SDS011;59316;52.964;7.102;2023-07-28T13:59:11;5.40;;;3.10;;
70757;SDS011;59316;52.964;7.102;2023-07-28T14:04:32;6.43;;;3.45;;
70757;SDS011;59316;52.964;7.102;2023-07-28T14:09:54;4.75;;;3.90;;
70757;SDS011;59316;52.964;7.102;2023-07-28T14:15:15;6.55;;;4.00;;
70757;SDS011;59316;52.964;7.102;2023-07-28T14:20:37;7.10;;;4.32;;
70757;SDS011;59316;52.964;7.102;2023-07-28T14:25:57;3.00;;;2.70;;
70757;SDS011;59316;52.964;7.102;2023-07-28T14:31:19;3.45;;;1.50;;
70757;SDS011;59316;52.964;7.102;2023-07-28T14:36:41;2.47;;;1.83;;
70757;SDS011;59316;52.964;7.102;2023-07-28T14:42:03;2.58;;;1.70;;
70757;SDS011;59316;52.964;7.102;2023-07-28T14:47:24;2.67;;;1.60;;
70757;SDS011;59316;52.964;7.102;2023-07-28T14:52:46;2.85;;;2.13;;
70757;SDS011;59316;52.964;7.102;2023-07-28T14:58:07;4.35;;;2.20;;
70757;SDS011;59316;52.964;7.102;2023-07-28T15:03:29;3.58;;;1.98;;
70757;SDS011;59316;52.964;7.102;2023-07-28T15:08:52;3.25;;;2.42;;
70757;SDS011;59316;52.964;7.102;2023-07-28T15:14:13;2.97;;;2.00;;
70757;SDS011;59316;52.964;7.102;2023-07-28T15:19:34;3.05;;;2.20;;
70757;SDS011;59316;52.964;7.102;2023-07-28T15:24:56;8.75;;;2.63;;
70757;SDS011;59316;52.964;7.102;2023-07-28T15:30:17;6.32;;;2.40;;
70757;SDS011;59316;52.964;7.102;2023-07-28T15:35:38;7.97;;;2.72;;
70757;SDS011;59316;52.964;7.102;2023-07-28T15:40:59;2.80;;;2.50;;
70757;SDS011;59316;52.964;7.102;2023-07-28T15:46:21;5.45;;;2.72;;
70757;SDS011;59316;52.964;7.102;2023-07-28T15:51:43;5.82;;;2.97;;
70757;SDS011;59316;52.964;7.102;2023-07-28T15:57:04;5.22;;;2.80;;
70757;SDS011;59316;52.964;7.102;2023-07-28T16:02:27;4.13;;;3.10;;
70757;SDS011;59316;52.964;7.102;2023-07-28T16:07:49;4.63;;;3.10;;
70757;SDS011;59316;52.964;7.102;2023-07-28T16:13:10;4.55;;;3.60;;
70757;SDS011;59316;52.964;7.102;2023-07-28T16:18:31;7.20;;;3.83;;
70757;SDS011;59316;52.964;7.102;2023-07-28T16:23:52;7.22;;;3.63;;
70757;SDS011;59316;52.964;7.102;2023-07-28T16:29:14;5.28;;;4.38;;
70757;SDS011;59316;52.964;7.102;2023-07-28T16:34:35;5.05;;;3.85;;
70757;SDS011;59316;52.964;7.102;2023-07-28T16:39:56;5.25;;;4.00;;
70757;SDS011;59316;52.964;7.102;2023-07-28T16:45:17;5.32;;;4.60;;
70757;SDS011;59316;52.964;7.102;2023-07-28T16:50:39;7.07;;;3.50;;
70757;SDS011;59316;52.964;7.102;2023-07-28T16:56:00;5.38;;;3.78;;
70757;SDS011;59316;52.964;7.102;2023-07-28T17:01:22;3.92;;;3.50;;
70757;SDS011;59316;52.964;7.102;2023-07-28T17:06:42;8.07;;;4.63;;
70757;SDS011;59316;52.964;7.102;2023-07-28T17:12:06;6.03;;;3.97;;
70757;SDS011;59316;52.964;7.102;2023-07-28T17:17:28;6.85;;;5.13;;
70757;SDS011;59316;52.964;7.102;2023-07-28T17:22:49;5.85;;;4.70;;
70757;SDS011;59316;52.964;7.102;2023-07-28T17:28:11;9.48;;;4.50;;
70757;SDS011;59316;52.964;7.102;2023-07-28T17:33:32;6.82;;;4.70;;
70757;SDS011;59316;52.964;7.102;2023-07-28T17:38:53;5.60;;;3.97;;
70757;SDS011;59316;52.964;7.102;2023-07-28T17:44:14;6.65;;;4.10;;
70757;SDS011;59316;52.964;7.102;2023-07-28T17:49:36;5.95;;;4.40;;
70757;SDS011;59316;52.964;7.102;2023-07-28T17:54:57;6.10;;;4.70;;
70757;SDS011;59316;52.964;7.102;2023-07-28T18:00:18;5.70;;;4.45;;
70757;SDS011;59316;52.964;7.102;2023-07-28T18:05:40;6.63;;;4.30;;
70757;SDS011;59316;52.964;7.102;2023-07-28T18:11:01;4.50;;;3.83;;
70757;SDS011;59316;52.964;7.102;2023-07-28T18:16:22;7.40;;;4.75;;
70757;SDS011;59316;52.964;7.102;2023-07-28T18:21:44;7.35;;;5.05;;
70757;SDS011;59316;52.964;7.102;2023-07-28T18:27:05;6.43;;;4.93;;
70757;SDS011;59316;52.964;7.102;2023-07-28T18:32:26;6.10;;;4.63;;
70757;SDS011;59316;52.964;7.102;2023-07-28T18:37:48;7.15;;;4.82;;
70757;SDS011;59316;52.964;7.102;2023-07-28T18:43:09;8.80;;;5.85;;
70757;SDS011;59316;52.964;7.102;2023-07-28T18:48:31;7.45;;;5.75;;
70757;SDS011;59316;52.964;7.102;2023-07-28T18:53:52;7.63;;;6.32;;
70757;SDS011;59316;52.964;7.102;2023-07-28T18:59:13;7.93;;;5.82;;
70757;SDS011;59316;52.964;7.102;2023-07-28T19:04:34;7.88;;;5.10;;
70757;SDS011;59316;52.964;7.102;2023-07-28T19:09:56;7.22;;;5.40;;
70757;SDS011;59316;52.964;7.102;2023-07-28T19:15:17;7.28;;;5.28;;
70757;SDS011;59316;52.964;7.102;2023-07-28T19:20:59;10.45;;;5.70;;
70757;SDS011;59316;52.964;7.102;2023-07-28T19:26:21;7.03;;;5.28;;
70757;SDS011;59316;52.964;7.102;2023-07-28T19:31:42;8.57;;;5.82;;
70757;SDS011;59316;52.964;7.102;2023-07-28T19:37:04;11.32;;;6.32;;
70757;SDS011;59316;52.964;7.102;2023-07-28T19:42:25;8.75;;;5.43;;
70757;SDS011;59316;52.964;7.102;2023-07-28T19:47:46;6.18;;;5.10;;
70757;SDS011;59316;52.964;7.102;2023-07-28T19:53:08;7.22;;;5.43;;
70757;SDS011;59316;52.964;7.102;2023-07-28T19:58:30;8.23;;;4.95;;
70757;SDS011;59316;52.964;7.102;2023-07-28T20:03:51;10.27;;;5.32;;
70757;SDS011;59316;52.964;7.102;2023-07-28T20:09:13;7.68;;;4.82;;
70757;SDS011;59316;52.964;7.102;2023-07-28T20:14:34;5.25;;;4.38;;
70757;SDS011;59316;52.964;7.102;2023-07-28T20:19:55;6.57;;;4.47;;
70757;SDS011;59316;52.964;7.102;2023-07-28T20:25:17;5.68;;;4.22;;
70757;SDS011;59316;52.964;7.102;2023-07-28T20:30:38;6.72;;;4.40;;
70757;SDS011;59316;52.964;7.102;2023-07-28T20:36:00;7.70;;;4.10;;
70757;SDS011;59316;52.964;7.102;2023-07-28T20:41:21;5.43;;;3.80;;
70757;SDS011;59316;52.964;7.102;2023-07-28T20:46:43;5.70;;;3.72;;
70757;SDS011;59316;52.964;7.102;2023-07-28T20:52:04;3.83;;;3.30;;
70757;SDS011;59316;52.964;7.102;2023-07-28T20:57:26;5.10;;;3.65;;
70757;SDS011;59316;52.964;7.102;2023-07-28T21:02:47;5.80;;;3.88;;
70757;SDS011;59316;52.964;7.102;2023-07-28T21:08:09;4.00;;;3.60;;
70757;SDS011;59316;52.964;7.102;2023-07-28T21:13:31;4.20;;;3.42;;
70757;SDS011;59316;52.964;7.102;2023-07-28T21:18:53;7.38;;;3.58;;
70757;SDS011;59316;52.964;7.102;2023-07-28T21:24:14;4.53;;;3.70;;
70757;SDS011;59316;52.964;7.102;2023-07-28T21:29:35;4.05;;;3.60;;
70757;SDS011;59316;52.964;7.102;2023-07-28T21:34:59;4.75;;;3.53;;
70757;SDS011;59316;52.964;7.102;2023-07-28T21:40:21;5.53;;;4.20;;
70757;SDS011;59316;52.964;7.102;2023-07-28T21:45:42;5.35;;;4.10;;
70757;SDS011;59316;52.964;7.102;2023-07-28T21:51:04;8.05;;;4.97;;
70757;SDS011;59316;52.964;7.102;2023-07-28T21:56:25;5.20;;;4.38;;
70757;SDS011;59316;52.964;7.102;2023-07-28T22:01:46;6.28;;;4.78;;
70757;SDS011;59316;52.964;7.102;2023-07-28T22:07:07;8.90;;;4.60;;
70757;SDS011;59316;52.964;7.102;2023-07-28T22:12:29;8.07;;;4.90;;
70757;SDS011;59316;52.964;7.102;2023-07-28T22:17:55;6.22;;;4.63;;
70757;SDS011;59316;52.964;7.102;2023-07-28T22:23:16;6.55;;;4.57;;
70757;SDS011;59316;52.964;7.102;2023-07-28T22:28:38;8.43;;;5.70;;
70757;SDS011;59316;52.964;7.102;2023-07-28T22:34:00;5.55;;;4.35;;
70757;SDS011;59316;52.964;7.102;2023-07-28T22:39:21;6.93;;;5.45;;
70757;SDS011;59316;52.964;7.102;2023-07-28T22:44:42;6.13;;;4.70;;
70757;SDS011;59316;52.964;7.102;2023-07-28T22:50:04;7.28;;;5.25;;
70757;SDS011;59316;52.964;7.102;2023-07-28T22:55:26;7.93;;;5.43;;
70757;SDS011;59316;52.964;7.102;2023-07-28T23:00:48;6.57;;;4.80;;
70757;SDS011;59316;52.964;7.102;2023-07-28T23:06:09;7.95;;;5.70;;
70757;SDS011;59316;52.964;7.102;2023-07-28T23:11:31;10.18;;;6.05;;
70757;SDS011;59316;52.964;7.102;2023-07-28T23:16:53;9.32;;;5.93;;
70757;SDS011;59316;52.964;7.102;2023-07-28T23:22:14;8.15;;;5.60;;
70757;SDS011;59316;52.964;7.102;2023-07-28T23:27:36;8.23;;;6.10;;
70757;SDS011;59316;52.964;7.102;2023-07-28T23:32:57;10.48;;;6.13;;
70757;SDS011;59316;52.964;7.102;2023-07-28T23:38:19;9.20;;;6.50;;
70757;SDS011;59316;52.964;7.102;2023-07-28T23:43:41;12.68;;;6.57;;
70757;SDS011;59316;52.964;7.102;2023-07-28T23:49:03;10.30;;;6.38;;
70757;SDS011;59316;52.964;7.102;2023-07-28T23:54:24;11.90;;;6.50;;
70757;SDS011;59316;52.964;7.102;2023-07-28T23:59:45;11.95;;;8.50;;
